Time;durP1;ratioP1;P1;durP2;ratioP2;P2;SDS_P1;SDS_P2;PMS_P1;PMS_P2;Temp;Humidity;BMP_temperature;BMP_pressure;BME280_temperature;BME280_humidity;BME280_pressure;Samples;Min_cycle;Max_cycle;Signal;HPM_P1;HPM_P2
2023/06/16 00:00:51;;;;;;;18.60;9.70;;;;;;;18.05;55.46;101726.03;4971745;28;20055;-65
2023/06/16 00:03:16;;;;;;;18.80;9.55;;;;;;;18.01;55.99;101722.22;4971873;28;20134;-65
2023/06/16 00:05:46;;;;;;;19.95;9.50;;;;;;;18.07;55.07;101720.91;4973010;28;20081;-65
2023/06/16 00:08:12;;;;;;;20.15;9.40;;;;;;;18.07;54.91;101720.06;4973294;28;20027;-65
2023/06/16 00:10:37;;;;;;;19.95;9.20;;;;;;;18.03;54.82;101717.13;4973163;28;20035;-66
2023/06/16 00:13:02;;;;;;;21.10;8.75;;;;;;;18.01;55.96;101718.63;4973037;28;20372;-65
2023/06/16 00:15:28;;;;;;;18.15;9.48;;;;;;;17.95;55.18;101714.34;4973129;28;20027;-66
2023/06/16 00:17:56;;;;;;;17.98;8.90;;;;;;;17.86;56.00;101717.97;4973370;28;20085;-66
2023/06/16 00:20:22;;;;;;;17.67;9.35;;;;;;;17.75;56.24;101716.72;4973163;28;20019;-66
2023/06/16 00:22:50;;;;;;;18.92;9.57;;;;;;;17.71;55.98;101715.75;4973125;28;20073;-66
2023/06/16 00:25:19;;;;;;;18.45;9.32;;;;;;;17.64;55.97;101721.03;4973127;28;20069;-66
2023/06/16 00:27:44;;;;;;;20.75;9.52;;;;;;;17.59;55.86;101720.03;4972978;28;20138;-67
2023/06/16 00:30:10;;;;;;;19.85;9.32;;;;;;;17.56;56.22;101722.69;4973245;28;20058;-66
2023/06/16 00:32:36;;;;;;;19.30;9.52;;;;;;;17.51;55.50;101720.88;4972966;28;20038;-67
2023/06/16 00:35:01;;;;;;;20.10;9.60;;;;;;;17.47;56.66;101719.94;4977660;28;20030;-66
2023/06/16 00:37:26;;;;;;;19.92;9.45;;;;;;;17.43;56.35;101722.53;4992593;28;20022;-66
2023/06/16 00:39:52;;;;;;;18.13;9.43;;;;;;;17.40;55.93;101717.63;4992615;28;20065;-66
2023/06/16 00:42:17;;;;;;;19.13;9.43;;;;;;;17.36;56.24;101715.81;4993258;28;20027;-66
2023/06/16 00:44:42;;;;;;;18.85;9.10;;;;;;;17.32;56.20;101721.25;4995651;28;20039;-66
2023/06/16 00:47:07;;;;;;;18.20;9.18;;;;;;;17.29;56.27;101716.31;4995224;28;20022;-66
2023/06/16 00:49:33;;;;;;;18.30;9.20;;;;;;;17.29;56.33;101719.13;4995218;28;20113;-66
2023/06/16 00:52:01;;;;;;;16.80;8.60;;;;;;;17.28;56.19;101717.47;4995520;28;20022;-66
2023/06/16 00:54:27;;;;;;;18.60;9.60;;;;;;;17.21;56.62;101709.59;4995404;28;20038;-66
2023/06/16 00:56:52;;;;;;;18.48;9.05;;;;;;;17.22;55.97;101708.44;4995529;28;20026;-66
2023/06/16 00:59:18;;;;;;;17.85;8.93;;;;;;;17.12;56.41;101706.81;4996002;28;20026;-66
2023/06/16 01:01:44;;;;;;;18.45;9.10;;;;;;;17.11;56.41;101702.38;4996063;28;20478;-66
2023/06/16 01:04:09;;;;;;;18.13;9.30;;;;;;;17.10;56.29;101708.28;4996093;28;20041;-66
2023/06/16 01:06:38;;;;;;;19.77;9.30;;;;;;;17.02;56.47;101697.91;4995909;28;20486;-66
2023/06/16 01:09:15;;;;;;;20.10;8.98;;;;;;;16.93;56.31;101695.94;4995917;28;20026;-66
2023/06/16 01:11:47;;;;;;;17.92;9.15;;;;;;;16.98;55.87;101704.19;4994582;28;20045;-66
2023/06/16 01:14:15;;;;;;;16.48;8.75;;;;;;;16.93;56.40;101704.34;4995552;28;20026;-66
2023/06/16 01:16:43;;;;;;;18.88;9.10;;;;;;;16.91;56.52;101705.78;4995812;28;20084;-66
2023/06/16 01:19:17;;;;;;;19.55;9.52;;;;;;;16.83;57.00;101701.84;4995679;28;20030;-66
2023/06/16 01:22:26;;;;;;;19.10;8.98;;;;;;;16.76;57.27;101701.50;4995581;28;20065;-65
2023/06/16 01:24:53;;;;;;;19.65;9.20;;;;;;;16.60;58.35;101695.56;4994709;28;20038;-66
2023/06/16 01:27:21;;;;;;;18.45;9.27;;;;;;;16.60;58.63;101703.94;4995668;28;20442;-65
2023/06/16 01:29:51;;;;;;;19.33;9.18;;;;;;;16.59;57.65;101705.94;4995509;28;20127;-66
2023/06/16 01:32:20;;;;;;;20.10;10.00;;;;;;;16.53;58.25;101702.47;4995679;28;20041;-66
2023/06/16 01:34:47;;;;;;;19.73;9.75;;;;;;;16.53;58.47;101708.06;4995294;28;20094;-66
2023/06/16 01:37:14;;;;;;;20.38;9.70;;;;;;;16.47;58.26;101714.13;4995262;28;20030;-66
2023/06/16 01:39:39;;;;;;;19.70;10.23;;;;;;;16.38;58.91;101711.31;4995150;28;20467;-66
2023/06/16 01:42:06;;;;;;;18.88;10.30;;;;;;;16.33;58.73;101717.88;4995148;28;20072;-65
2023/06/16 01:44:33;;;;;;;19.23;10.27;;;;;;;16.29;58.71;101716.06;4995264;28;20037;-66
2023/06/16 01:46:58;;;;;;;21.60;10.02;;;;;;;16.30;58.75;101717.69;4994084;28;20030;-65
2023/06/16 01:49:25;;;;;;;20.15;9.98;;;;;;;16.24;59.15;101708.66;4995295;28;20037;-66
2023/06/16 01:51:50;;;;;;;19.27;9.40;;;;;;;16.28;59.47;101711.63;4994998;28;20030;-66
2023/06/16 01:54:15;;;;;;;21.65;10.13;;;;;;;16.18;60.03;101705.19;4995028;28;20398;-66
2023/06/16 01:56:41;;;;;;;19.52;9.50;;;;;;;16.14;59.82;101704.19;4995001;28;20027;-66
2023/06/16 01:59:06;;;;;;;21.50;9.80;;;;;;;16.06;60.07;101705.78;4994737;28;20176;-65
2023/06/16 02:02:01;;;;;;;20.00;9.73;;;;;;;15.96;59.86;101705.25;4994854;28;20109;-66
2023/06/16 02:04:28;;;;;;;20.25;10.10;;;;;;;15.90;60.32;101707.38;4994818;28;20030;-66
2023/06/16 02:06:59;;;;;;;19.85;9.75;;;;;;;15.82;60.33;101703.34;4994780;28;20128;-66
2023/06/16 02:09:26;;;;;;;20.48;10.85;;;;;;;15.81;60.05;101700.91;4994782;28;20037;-66
2023/06/16 02:11:53;;;;;;;19.70;9.70;;;;;;;15.78;60.43;101698.75;4994754;28;20053;-65
2023/06/16 02:14:18;;;;;;;21.23;9.98;;;;;;;15.74;60.74;101698.56;4994571;28;20466;-65
2023/06/16 02:16:44;;;;;;;18.98;9.85;;;;;;;15.66;61.20;101694.59;4994585;28;20033;-65
2023/06/16 02:19:11;;;;;;;19.98;9.35;;;;;;;15.63;61.34;101700.81;4994444;28;20023;-66
2023/06/16 02:21:37;;;;;;;18.27;9.48;;;;;;;15.57;61.65;101700.13;4994585;28;20113;-66
2023/06/16 02:24:03;;;;;;;19.15;9.50;;;;;;;15.57;60.84;101702.09;4994349;28;20133;-66
2023/06/16 02:26:28;;;;;;;19.10;9.40;;;;;;;15.54;61.17;101697.16;4994159;28;20026;-66
2023/06/16 02:28:54;;;;;;;20.40;9.45;;;;;;;15.50;60.74;101702.56;4994126;28;20065;-66
2023/06/16 02:31:19;;;;;;;18.80;9.82;;;;;;;15.46;60.98;101695.16;4994168;28;20027;-65
2023/06/16 02:33:45;;;;;;;19.35;9.25;;;;;;;15.43;61.07;101691.84;4994193;28;20105;-66
2023/06/16 02:36:10;;;;;;;20.33;10.02;;;;;;;15.40;61.04;101698.06;4994450;28;20057;-66
2023/06/16 02:38:36;;;;;;;19.80;9.65;;;;;;;15.38;61.11;101702.31;4994207;28;20030;-65
2023/06/16 02:41:01;;;;;;;19.80;9.80;;;;;;;15.38;60.48;101699.50;4993956;28;20441;-65
2023/06/16 02:43:26;;;;;;;19.55;9.82;;;;;;;15.39;60.13;101702.00;4992510;28;20069;-65
2023/06/16 02:45:52;;;;;;;20.45;9.90;;;;;;;15.36;60.24;101704.56;4993537;28;20049;-65
2023/06/16 02:48:17;;;;;;;19.13;9.70;;;;;;;15.33;60.90;101703.25;4994003;28;20031;-64
2023/06/16 02:50:42;;;;;;;17.83;9.43;;;;;;;15.27;61.04;101704.53;4993846;28;20538;-65
2023/06/16 02:53:08;;;;;;;21.00;9.75;;;;;;;15.20;61.00;101696.63;4993887;28;20038;-65
2023/06/16 02:55:35;;;;;;;19.08;9.55;;;;;;;15.26;60.78;101705.69;4994123;28;20041;-65
2023/06/16 02:58:00;;;;;;;19.92;9.65;;;;;;;15.23;61.00;101700.72;4993780;28;20049;-65
2023/06/16 03:00:25;;;;;;;17.98;9.88;;;;;;;15.23;61.03;101704.34;4993474;28;20398;-65
2023/06/16 03:02:51;;;;;;;18.20;10.05;;;;;;;15.22;60.35;101697.13;4993696;28;20022;-65
2023/06/16 03:05:18;;;;;;;18.70;9.48;;;;;;;15.25;60.31;101692.88;4993322;28;20027;-65
2023/06/16 03:07:44;;;;;;;19.10;9.77;;;;;;;15.19;61.05;101696.94;4993509;28;20029;-65
2023/06/16 03:10:11;;;;;;;19.17;9.65;;;;;;;15.19;60.60;101700.53;4993575;28;20037;-65
2023/06/16 03:12:36;;;;;;;21.13;9.65;;;;;;;15.16;61.17;101703.94;4993836;28;20036;-65
2023/06/16 03:15:02;;;;;;;18.23;9.15;;;;;;;15.16;60.97;101698.38;4993286;28;20382;-65
2023/06/16 03:17:27;;;;;;;18.95;9.98;;;;;;;15.16;61.23;101705.94;4993335;28;20041;-65
2023/06/16 03:19:52;;;;;;;21.42;9.77;;;;;;;15.12;61.38;101702.94;4993159;28;20378;-65
2023/06/16 03:22:18;;;;;;;20.27;9.98;;;;;;;15.12;61.50;101714.09;4993051;28;20030;-65
2023/06/16 03:24:44;;;;;;;18.48;10.30;;;;;;;15.09;61.34;101706.38;4993133;28;20034;-65
2023/06/16 03:27:10;;;;;;;20.95;10.40;;;;;;;15.01;61.85;101704.34;4991834;28;20033;-66
2023/06/16 03:29:36;;;;;;;21.45;10.75;;;;;;;15.02;62.06;101708.78;4993306;28;20054;-65
2023/06/16 03:32:05;;;;;;;21.58;10.48;;;;;;;14.90;63.07;101712.94;4993310;28;20088;-65
2023/06/16 03:34:31;;;;;;;20.27;10.23;;;;;;;14.94;62.06;101711.19;4993255;28;20034;-65
2023/06/16 03:36:57;;;;;;;20.13;10.73;;;;;;;14.85;62.46;101707.50;4993059;28;20088;-65
2023/06/16 03:39:22;;;;;;;19.98;11.40;;;;;;;14.77;62.89;101709.06;4993027;28;20110;-65
2023/06/16 03:41:47;;;;;;;19.00;10.57;;;;;;;14.76;63.09;101706.59;4992938;28;20089;-65
2023/06/16 03:44:13;;;;;;;20.60;10.88;;;;;;;14.78;62.59;101713.50;4992901;28;20084;-65
2023/06/16 03:46:38;;;;;;;20.35;11.07;;;;;;;14.90;62.76;101707.34;4992804;28;20458;-65
2023/06/16 03:49:03;;;;;;;20.88;10.90;;;;;;;15.29;61.03;101711.44;4992999;28;20023;-65
2023/06/16 03:51:29;;;;;;;19.10;10.23;;;;;;;15.68;60.03;101705.44;4992899;28;20458;-65
2023/06/16 03:53:55;;;;;;;21.17;11.13;;;;;;;15.94;58.91;101701.97;4992842;28;20118;-65
2023/06/16 03:56:20;;;;;;;23.17;10.23;;;;;;;15.95;58.23;101704.47;4992744;28;20109;-65
2023/06/16 03:58:48;;;;;;;19.60;10.73;;;;;;;15.68;58.81;101705.44;4992591;28;20428;-65
2023/06/16 04:01:14;;;;;;;20.20;10.68;;;;;;;15.52;59.63;101710.59;4992907;28;20072;-65
2023/06/16 04:03:39;;;;;;;20.52;10.23;;;;;;;15.30;60.17;101717.84;4992644;28;20054;-65
2023/06/16 04:06:05;;;;;;;21.33;10.57;;;;;;;15.15;60.76;101715.44;4992531;28;20067;-65
2023/06/16 04:08:30;;;;;;;19.33;10.35;;;;;;;15.05;61.52;101711.75;4992670;28;20462;-65
2023/06/16 04:10:57;;;;;;;21.65;10.98;;;;;;;15.03;61.24;101719.59;4992661;28;20058;-65
2023/06/16 04:13:26;;;;;;;22.58;10.82;;;;;;;15.01;61.35;101718.25;4992702;28;20034;-65
2023/06/16 04:15:51;;;;;;;21.38;10.75;;;;;;;15.00;61.35;101714.66;4992524;28;20032;-65
2023/06/16 04:18:17;;;;;;;20.98;11.80;;;;;;;15.04;61.21;101724.03;4995270;28;20027;-65
2023/06/16 04:20:42;;;;;;;22.15;11.18;;;;;;;14.97;61.72;101726.44;4996597;28;20030;-65
2023/06/16 04:23:09;;;;;;;22.52;11.25;;;;;;;14.94;61.71;101722.31;4996629;28;20054;-65
2023/06/16 04:25:38;;;;;;;21.83;11.50;;;;;;;14.91;62.01;101722.94;4996498;28;20045;-65
2023/06/16 04:28:04;;;;;;;21.65;11.70;;;;;;;14.89;62.39;101730.78;4996186;28;20057;-65
2023/06/16 04:30:33;;;;;;;20.63;11.30;;;;;;;14.94;62.82;101724.25;4996448;28;20046;-66
2023/06/16 04:33:01;;;;;;;21.73;11.13;;;;;;;15.02;62.51;101731.88;4996728;28;20032;-65
2023/06/16 04:35:27;;;;;;;21.52;11.70;;;;;;;15.12;62.19;101733.59;4996710;28;20164;-66
2023/06/16 04:37:57;;;;;;;22.38;12.02;;;;;;;15.18;62.45;101731.53;4996468;28;20109;-66
2023/06/16 04:40:26;;;;;;;22.27;12.20;;;;;;;15.22;62.38;101725.00;4996159;28;20032;-66
2023/06/16 04:42:52;;;;;;;22.30;12.18;;;;;;;15.32;62.27;101731.47;4996158;28;20374;-66
2023/06/16 04:45:17;;;;;;;21.70;11.93;;;;;;;15.38;62.32;101735.75;4996116;28;20030;-66
2023/06/16 04:47:43;;;;;;;21.80;12.52;;;;;;;15.50;62.03;101738.81;4996072;28;20031;-67
2023/06/16 04:50:09;;;;;;;22.75;12.63;;;;;;;15.58;62.05;101740.00;4995947;28;20033;-66
2023/06/16 04:52:36;;;;;;;21.70;12.43;;;;;;;15.67;61.71;101740.03;4994743;28;20382;-66
2023/06/16 04:55:03;;;;;;;21.40;12.65;;;;;;;15.76;61.58;101732.53;4996061;28;20036;-66
2023/06/16 04:57:28;;;;;;;22.45;13.32;;;;;;;15.84;61.78;101737.38;4996273;28;20037;-66
2023/06/16 04:59:53;;;;;;;20.55;12.68;;;;;;;15.93;61.37;101736.59;4994533;28;20030;-67
2023/06/16 05:02:19;;;;;;;21.50;12.65;;;;;;;15.98;61.30;101736.47;4995863;28;20106;-66
2023/06/16 05:04:44;;;;;;;23.55;13.18;;;;;;;16.04;61.29;101735.16;4995877;28;20080;-66
2023/06/16 05:07:13;;;;;;;23.95;13.90;;;;;;;16.11;61.00;101731.91;4995800;28;20080;-65
2023/06/16 05:09:38;;;;;;;21.70;13.02;;;;;;;16.17;61.32;101739.00;4995657;28;20153;-66
2023/06/16 05:12:05;;;;;;;21.63;13.23;;;;;;;16.25;61.33;101737.38;4995814;28;20121;-64
2023/06/16 05:14:31;;;;;;;21.55;13.23;;;;;;;16.31;61.02;101734.13;4995840;28;20041;-64
2023/06/16 05:16:56;;;;;;;22.40;13.82;;;;;;;16.45;61.13;101741.53;4995684;28;20034;-64
2023/06/16 05:19:22;;;;;;;22.08;14.13;;;;;;;16.49;60.10;101736.97;4995514;28;20034;-65
2023/06/16 05:21:47;;;;;;;23.10;13.10;;;;;;;16.61;60.47;101739.13;4995692;28;20097;-66
2023/06/16 05:24:12;;;;;;;22.17;13.65;;;;;;;16.63;60.38;101746.03;4995469;28;20394;-66
2023/06/16 05:26:38;;;;;;;22.75;13.88;;;;;;;16.71;60.63;101738.00;4995244;28;20037;-65
2023/06/16 05:29:04;;;;;;;22.98;13.70;;;;;;;16.72;59.65;101742.44;4994878;28;20470;-66
2023/06/16 05:31:29;;;;;;;23.15;15.00;;;;;;;16.78;60.18;101744.72;4995633;28;20133;-66
2023/06/16 05:33:55;;;;;;;23.05;14.50;;;;;;;16.83;59.99;101750.19;4995492;28;20458;-66
2023/06/16 05:36:24;;;;;;;22.25;13.32;;;;;;;16.95;59.52;101745.94;4995156;28;20034;-66
2023/06/16 05:38:51;;;;;;;23.63;13.90;;;;;;;17.04;59.73;101746.78;4995244;28;20042;-66
2023/06/16 05:41:16;;;;;;;22.15;13.20;;;;;;;17.14;58.97;101740.81;4993938;28;20398;-65
2023/06/16 05:43:41;;;;;;;21.40;13.45;;;;;;;17.19;59.00;101748.25;5011502;28;20056;-65
2023/06/16 05:46:06;;;;;;;22.30;13.90;;;;;;;17.30;59.05;101745.94;5014702;28;20029;-65
2023/06/16 05:48:32;;;;;;;22.38;13.73;;;;;;;17.37;59.04;101749.03;5013416;28;20034;-65
2023/06/16 05:50:59;;;;;;;23.63;14.02;;;;;;;17.43;58.70;101746.91;5014669;28;20033;-66
2023/06/16 05:53:24;;;;;;;23.23;13.75;;;;;;;17.52;58.94;101750.50;5014759;28;20026;-66
2023/06/16 05:55:49;;;;;;;23.17;13.88;;;;;;;17.65;58.46;101751.47;5014497;28;20115;-65
2023/06/16 05:58:15;;;;;;;21.63;13.65;;;;;;;17.75;58.74;101755.91;5014476;28;20088;-66
2023/06/16 06:00:40;;;;;;;23.38;13.98;;;;;;;17.81;57.90;101748.97;5014684;28;20443;-65
2023/06/16 06:03:06;;;;;;;22.05;13.52;;;;;;;17.89;58.02;101752.91;5014462;28;20033;-67
2023/06/16 06:05:31;;;;;;;20.70;13.18;;;;;;;17.97;56.73;101759.63;5014388;28;20029;-65
2023/06/16 06:07:56;;;;;;;22.10;13.00;;;;;;;18.06;57.09;101750.06;5014316;28;20022;-65
2023/06/16 06:10:22;;;;;;;22.67;13.65;;;;;;;18.13;56.26;101759.91;5012739;28;20026;-66
2023/06/16 06:12:47;;;;;;;21.73;13.55;;;;;;;18.18;56.50;101754.94;5014057;28;20018;-66
2023/06/16 06:15:12;;;;;;;22.13;13.57;;;;;;;18.27;56.22;101765.28;5013977;28;20030;-65
2023/06/16 06:17:37;;;;;;;21.77;13.73;;;;;;;18.34;56.36;101763.59;5013984;28;20030;-65
2023/06/16 06:20:03;;;;;;;21.35;12.55;;;;;;;18.48;55.46;101765.34;5014105;28;20076;-65
2023/06/16 06:22:32;;;;;;;21.52;12.75;;;;;;;18.61;55.41;101778.28;5013872;28;20030;-65
2023/06/16 06:24:58;;;;;;;21.75;13.23;;;;;;;18.73;54.96;101768.34;5012369;28;20029;-65
2023/06/16 06:27:23;;;;;;;23.75;12.75;;;;;;;18.89;55.33;101768.56;5013079;28;20087;-66
2023/06/16 06:29:48;;;;;;;21.67;13.43;;;;;;;19.00;55.37;101767.84;5013909;28;20018;-66
2023/06/16 06:32:14;;;;;;;23.00;13.15;;;;;;;19.06;54.33;101771.25;5013701;28;20018;-66
2023/06/16 06:34:39;;;;;;;21.30;12.30;;;;;;;19.19;54.05;101766.53;5013615;28;20057;-65
2023/06/16 06:37:05;;;;;;;20.30;11.50;;;;;;;19.35;53.13;101771.50;5012199;28;20390;-65
2023/06/16 06:39:30;;;;;;;22.05;11.52;;;;;;;19.50;52.70;101776.50;5013184;28;20477;-66
2023/06/16 06:41:55;;;;;;;20.83;11.70;;;;;;;19.58;51.05;101777.56;5012026;28;20156;-61
2023/06/16 06:44:21;;;;;;;21.08;11.50;;;;;;;19.68;50.95;101782.72;5013518;28;20462;-66
2023/06/16 06:46:47;;;;;;;22.50;11.73;;;;;;;19.72;49.66;101783.69;5012111;28;20167;-66
2023/06/16 06:49:12;;;;;;;22.75;12.15;;;;;;;19.77;50.09;101789.09;5013666;28;20029;-65
2023/06/16 06:51:38;;;;;;;19.88;11.20;;;;;;;19.84;47.88;101784.91;5013308;28;20022;-63
2023/06/16 06:54:03;;;;;;;19.23;11.02;;;;;;;19.84;46.92;101782.09;5013629;28;20052;-66
2023/06/16 06:56:28;;;;;;;23.02;13.90;;;;;;;19.95;47.54;101781.31;5013519;28;20032;-66
2023/06/16 06:58:53;;;;;;;20.02;11.55;;;;;;;20.07;46.40;101777.72;5013333;28;20112;-66
2023/06/16 07:01:19;;;;;;;20.13;10.75;;;;;;;20.11;45.19;101777.81;5013163;28;20052;-66
2023/06/16 07:03:45;;;;;;;20.17;10.32;;;;;;;20.27;45.49;101777.97;5013196;28;20040;-66
2023/06/16 07:06:11;;;;;;;22.00;12.30;;;;;;;20.30;44.74;101779.25;5008571;28;20117;-69
2023/06/16 07:08:37;;;;;;;19.17;10.23;;;;;;;20.46;44.86;101776.56;4972643;28;20140;-66
2023/06/16 07:11:03;;;;;;;19.92;9.98;;;;;;;20.61;43.10;101777.84;4972896;28;20040;-64
2023/06/16 07:13:28;;;;;;;19.52;10.30;;;;;;;20.77;43.10;101784.41;4972730;28;20114;-66
2023/06/16 07:15:53;;;;;;;17.88;9.55;;;;;;;20.83;41.74;101782.19;4972982;28;20075;-64
2023/06/16 07:18:20;;;;;;;19.13;9.90;;;;;;;20.86;41.22;101789.91;4972659;28;20478;-63
2023/06/16 07:20:46;;;;;;;18.50;9.40;;;;;;;20.99;42.41;101787.91;4972679;28;20074;-65
2023/06/16 07:23:11;;;;;;;20.00;9.70;;;;;;;21.14;41.94;101789.94;4971235;28;20077;-64
2023/06/16 07:25:36;;;;;;;17.98;9.55;;;;;;;21.27;41.72;101793.53;4972559;28;20031;-64
2023/06/16 07:28:04;;;;;;;18.13;9.68;;;;;;;21.31;40.42;101788.00;4972601;28;20069;-67
2023/06/16 07:30:29;;;;;;;19.15;9.95;;;;;;;21.37;40.96;101777.31;4977268;28;20034;-66
2023/06/16 07:32:55;;;;;;;16.85;9.48;;;;;;;21.47;40.71;101786.09;4991900;28;20042;-66
2023/06/16 07:35:20;;;;;;;19.13;10.38;;;;;;;21.51;39.49;101789.00;4991488;28;20034;-65
2023/06/16 07:37:46;;;;;;;18.33;9.40;;;;;;;21.59;39.62;101788.06;4991612;28;20366;-66
2023/06/16 07:40:13;;;;;;;21.08;10.10;;;;;;;21.63;40.52;101794.59;4991331;28;20041;-67
2023/06/16 07:42:40;;;;;;;19.40;10.05;;;;;;;21.55;38.25;101787.09;4991729;28;20022;-67
2023/06/16 07:45:06;;;;;;;18.90;10.40;;;;;;;21.51;39.22;101791.81;4991394;28;20473;-67
2023/06/16 07:47:31;;;;;;;20.52;10.43;;;;;;;21.49;39.15;101791.34;4990688;28;20057;-67
2023/06/16 07:49:56;;;;;;;19.67;10.00;;;;;;;21.62;39.65;101795.78;4990748;28;20061;-65
2023/06/16 07:52:22;;;;;;;17.38;9.93;;;;;;;21.71;38.31;101787.16;4990838;28;20053;-66
2023/06/16 07:54:47;;;;;;;18.30;10.32;;;;;;;21.79;39.06;101789.00;4990549;28;20035;-66
2023/06/16 07:57:12;;;;;;;19.20;10.40;;;;;;;21.94;38.28;101784.56;4990238;28;20030;-66
2023/06/16 07:59:38;;;;;;;19.85;10.63;;;;;;;22.04;38.82;101790.84;4990926;28;20034;-66
2023/06/16 08:02:03;;;;;;;19.10;9.90;;;;;;;22.04;36.66;101779.56;4990445;28;20053;-66
2023/06/16 08:04:29;;;;;;;17.20;9.32;;;;;;;22.18;37.63;101790.41;4990073;28;20037;-66
2023/06/16 08:06:56;;;;;;;18.05;9.57;;;;;;;22.29;37.36;101780.22;4990522;28;20027;-66
2023/06/16 08:09:21;;;;;;;17.95;9.35;;;;;;;22.39;36.71;101781.66;4991696;28;20034;-66
2023/06/16 08:11:46;;;;;;;18.35;9.70;;;;;;;22.33;35.65;101781.13;4991196;28;20037;-66
2023/06/16 08:14:12;;;;;;;16.60;8.85;;;;;;;22.36;35.06;101786.03;4991165;28;20031;-66
2023/06/16 08:16:37;;;;;;;19.60;9.57;;;;;;;22.24;34.18;101780.50;4990393;28;20474;-66
2023/06/16 08:19:02;;;;;;;20.55;9.50;;;;;;;22.32;35.64;101781.47;4991592;28;20026;-66
2023/06/16 08:21:28;;;;;;;17.45;9.15;;;;;;;22.34;35.62;101777.09;4992012;28;20493;-66
2023/06/16 08:23:53;;;;;;;16.15;8.73;;;;;;;22.43;34.72;101771.31;4991997;28;20026;-66
2023/06/16 08:26:18;;;;;;;18.40;8.73;;;;;;;22.56;34.70;101767.22;4991723;28;20026;-66
2023/06/16 08:28:44;;;;;;;19.98;9.75;;;;;;;22.64;34.98;101773.81;4992034;28;20050;-66
2023/06/16 08:31:10;;;;;;;17.02;8.65;;;;;;;22.75;34.72;101776.91;4991945;28;20038;-67
2023/06/16 08:33:35;;;;;;;19.13;9.52;;;;;;;22.61;33.94;101771.75;4991937;28;20030;-67
2023/06/16 08:36:00;;;;;;;17.27;9.20;;;;;;;22.70;34.57;101783.66;4992009;28;20057;-66
2023/06/16 08:38:25;;;;;;;18.50;9.30;;;;;;;22.83;35.47;101775.88;4992001;28;20034;-66
2023/06/16 08:40:51;;;;;;;19.13;10.18;;;;;;;22.82;34.36;101785.53;4991391;28;20096;-66
2023/06/16 08:43:17;;;;;;;19.80;10.07;;;;;;;22.79;34.85;101786.25;4990944;28;20023;-66
2023/06/16 08:45:45;;;;;;;18.63;9.80;;;;;;;22.94;34.76;101770.47;4991051;28;20482;-66
2023/06/16 08:48:11;;;;;;;16.88;8.93;;;;;;;23.02;32.73;101771.47;4991009;28;20778;-67
2023/06/16 08:50:37;;;;;;;17.52;8.80;;;;;;;23.17;33.18;101770.56;4991260;28;20663;-66
2023/06/16 08:53:06;;;;;;;18.40;9.27;;;;;;;23.31;33.12;101775.72;4986856;28;20121;-67
2023/06/16 08:55:32;;;;;;;18.30;9.40;;;;;;;23.49;33.61;101759.16;4979614;28;20522;-66
2023/06/16 08:57:59;;;;;;;17.73;9.40;;;;;;;23.57;33.37;101764.94;4988811;28;20048;-67
2023/06/16 09:00:27;;;;;;;17.48;9.07;;;;;;;23.60;33.12;101753.69;4989372;28;20101;-66
2023/06/16 09:02:56;;;;;;;19.38;9.02;;;;;;;23.87;32.71;101755.78;4990951;28;20473;-66
2023/06/16 09:05:22;;;;;;;20.42;9.23;;;;;;;24.08;32.79;101761.88;4994760;28;20097;-67
2023/06/16 09:07:47;;;;;;;16.90;8.98;;;;;;;24.23;32.77;101767.75;4994741;28;20033;-66
2023/06/16 09:10:12;;;;;;;18.35;9.10;;;;;;;24.34;31.95;101762.25;4994741;28;20031;-67
2023/06/16 09:12:38;;;;;;;18.33;8.90;;;;;;;24.41;31.23;101762.38;4994300;28;20096;-66
2023/06/16 09:15:10;;;;;;;17.10;9.20;;;;;;;24.33;31.24;101772.75;4994220;28;20052;-67
2023/06/16 09:17:37;;;;;;;19.10;9.60;;;;;;;24.39;31.40;101771.22;4993814;28;20485;-66
2023/06/16 09:20:06;;;;;;;18.33;8.75;;;;;;;24.43;31.85;101765.63;4994374;28;20038;-66
2023/06/16 09:22:32;;;;;;;18.70;9.10;;;;;;;24.59;31.59;101771.97;4994540;28;20089;-67
2023/06/16 09:25:06;;;;;;;17.05;9.02;;;;;;;24.69;31.64;101770.50;4994459;28;20041;-68
2023/06/16 09:27:45;;;;;;;19.05;9.55;;;;;;;24.81;31.25;101763.00;4993888;28;20176;-67
2023/06/16 09:30:13;;;;;;;17.98;9.48;;;;;;;24.99;30.80;101764.06;4994285;28;20071;-68
2023/06/16 09:32:39;;;;;;;18.75;9.23;;;;;;;24.98;30.69;101768.06;4994590;28;20041;-67
2023/06/16 09:35:15;;;;;;;18.45;9.27;;;;;;;24.81;31.17;101751.66;4994211;28;20027;-68
2023/06/16 09:37:41;;;;;;;18.05;9.35;;;;;;;24.70;30.83;101765.69;4994148;28;20109;-68
2023/06/16 09:40:08;;;;;;;17.98;9.07;;;;;;;24.77;30.98;101768.59;4994020;28;20026;-68
2023/06/16 09:42:34;;;;;;;17.73;9.38;;;;;;;24.86;30.67;101760.66;4994025;28;20054;-68
2023/06/16 09:44:59;;;;;;;18.08;9.40;;;;;;;24.91;30.62;101757.47;4993980;28;20034;-68
2023/06/16 09:47:25;;;;;;;19.63;9.45;;;;;;;25.00;30.45;101754.38;4994068;28;20044;-67
2023/06/16 09:49:52;;;;;;;17.88;9.02;;;;;;;25.12;30.51;101753.28;4993877;28;20057;-67
2023/06/16 09:52:25;;;;;;;16.83;9.02;;;;;;;25.24;30.35;101752.22;4992101;28;20031;-67
2023/06/16 09:54:51;;;;;;;18.60;9.20;;;;;;;25.31;29.81;101759.97;4991483;28;20038;-69
2023/06/16 09:57:17;;;;;;;17.95;8.82;;;;;;;25.38;29.31;101752.41;4993451;28;20034;-68
2023/06/16 09:59:42;;;;;;;15.80;8.52;;;;;;;25.34;29.43;101757.19;4993440;28;20026;-65
2023/06/16 10:02:09;;;;;;;17.73;8.98;;;;;;;25.51;29.10;101757.81;4993474;28;20048;-65
2023/06/16 10:04:34;;;;;;;17.88;9.05;;;;;;;25.57;29.03;101747.78;4993558;28;20037;-67
2023/06/16 10:07:04;;;;;;;16.20;8.52;;;;;;;25.74;28.67;101740.63;4992071;28;20654;-68
2023/06/16 10:09:39;;;;;;;17.13;8.90;;;;;;;25.77;28.44;101737.03;5006265;28;20033;-68
2023/06/16 10:12:07;;;;;;;17.10;9.35;;;;;;;25.74;28.61;101746.31;5013252;28;20034;-68
2023/06/16 10:14:34;;;;;;;18.73;8.95;;;;;;;25.83;29.28;101737.50;5012571;28;20133;-67
2023/06/16 10:17:00;;;;;;;15.57;8.45;;;;;;;25.90;28.10;101739.59;5012615;28;20033;-67
2023/06/16 10:19:28;;;;;;;18.25;8.68;;;;;;;25.97;27.73;101731.97;5013063;28;20037;-68
2023/06/16 10:21:55;;;;;;;16.40;8.52;;;;;;;26.08;27.85;101731.22;5010565;28;20073;-68
2023/06/16 10:24:20;;;;;;;15.82;8.60;;;;;;;26.09;26.93;101730.03;4992928;28;20038;-68
2023/06/16 10:26:46;;;;;;;16.83;8.60;;;;;;;26.09;27.17;101730.03;4993111;28;20735;-68
2023/06/16 10:29:16;;;;;;;17.20;8.50;;;;;;;26.15;27.57;101729.28;4991936;28;20141;-67
2023/06/16 10:31:43;;;;;;;18.90;8.88;;;;;;;26.28;27.18;101732.63;5013174;28;20026;-66
2023/06/16 10:34:18;;;;;;;15.63;8.52;;;;;;;26.19;27.43;101728.50;5012984;28;20405;-68
2023/06/16 10:36:43;;;;;;;15.98;8.60;;;;;;;26.36;27.01;101733.50;5012425;28;20025;-67
2023/06/16 10:39:13;;;;;;;15.25;8.40;;;;;;;26.40;26.84;101720.13;5012427;28;20438;-67
2023/06/16 10:41:58;;;;;;;16.40;8.65;;;;;;;26.58;27.53;101720.25;5012615;28;20147;-67
2023/06/16 10:44:31;;;;;;;16.70;8.40;;;;;;;26.46;25.86;101717.75;5012244;28;20045;-68
2023/06/16 10:47:08;;;;;;;17.08;8.48;;;;;;;26.57;27.41;101721.47;5002156;28;20347;-67
2023/06/16 10:49:47;;;;;;;16.08;8.57;;;;;;;26.58;26.85;101711.75;4973314;28;20034;-67
2023/06/16 10:52:27;;;;;;;18.33;8.82;;;;;;;26.70;26.98;101709.78;4983316;28;20113;-66
2023/06/16 10:54:54;;;;;;;16.05;8.88;;;;;;;26.55;26.47;101711.72;4987021;28;20034;-67
2023/06/16 10:57:20;;;;;;;17.77;8.90;;;;;;;26.48;26.74;101712.50;4985729;28;20073;-67
2023/06/16 11:00:11;;;;;;;17.75;8.73;;;;;;;26.60;26.84;101703.66;4981496;28;20058;-66
2023/06/16 11:02:37;;;;;;;17.13;9.15;;;;;;;26.47;26.82;101706.03;4987364;28;20066;-68
2023/06/16 11:05:12;;;;;;;18.35;8.73;;;;;;;26.64;26.58;101706.50;4982441;28;20402;-67
2023/06/16 11:08:05;;;;;;;16.17;8.25;;;;;;;26.92;26.34;101705.06;4980647;28;20030;-67
2023/06/16 11:10:48;;;;;;;18.42;8.93;;;;;;;26.92;26.70;101705.84;4977934;28;20030;-67
2023/06/16 11:13:14;;;;;;;16.50;8.80;;;;;;;27.14;26.33;101700.25;4983084;28;20030;-67